sensor_id;sensor_type;location;lat;lon;timestamp;temperature;humidity
2465;DHT22;1244;54.326;10.074;2023-11-21T00:02:12;7.20;99.90
2465;DHT22;1244;54.326;10.074;2023-11-21T00:04:37;7.20;99.90
2465;DHT22;1244;54.326;10.074;2023-11-21T00:07:03;7.20;99.90
2465;DHT22;1244;54.326;10.074;2023-11-21T00:09:29;7.20;99.90
2465;DHT22;1244;54.326;10.074;2023-11-21T00:11:54;7.20;99.90
2465;DHT22;1244;54.326;10.074;2023-11-21T00:14:20;7.20;99.90
2465;DHT22;1244;54.326;10.074;2023-11-21T00:16:45;7.10;99.90
2465;DHT22;1244;54.326;10.074;2023-11-21T00:19:11;7.10;99.90
2465;DHT22;1244;54.326;10.074;2023-11-21T00:21:37;7.20;99.90
2465;DHT22;1244;54.326;10.074;2023-11-21T00:24:03;7.20;99.90
2465;DHT22;1244;54.326;10.074;2023-11-21T00:26:29;7.10;99.90
2465;DHT22;1244;54.326;10.074;2023-11-21T00:28:56;7.10;99.90
2465;DHT22;1244;54.326;10.074;2023-11-21T00:31:22;7.10;99.90
2465;DHT22;1244;54.326;10.074;2023-11-21T00:33:47;7.10;99.90
2465;DHT22;1244;54.326;10.074;2023-11-21T00:36:13;7.10;99.90
2465;DHT22;1244;54.326;10.074;2023-11-21T00:38:38;7.10;99.90
2465;DHT22;1244;54.326;10.074;2023-11-21T00:41:05;7.10;99.90
2465;DHT22;1244;54.326;10.074;2023-11-21T00:43:31;7.00;99.90
2465;DHT22;1244;54.326;10.074;2023-11-21T00:45:59;7.10;99.90
2465;DHT22;1244;54.326;10.074;2023-11-21T00:48:24;7.00;99.90
2465;DHT22;1244;54.326;10.074;2023-11-21T00:50:50;7.00;99.90
2465;DHT22;1244;54.326;10.074;2023-11-21T00:53:15;7.00;99.90
2465;DHT22;1244;54.326;10.074;2023-11-21T00:55:41;7.00;99.90
2465;DHT22;1244;54.326;10.074;2023-11-21T00:58:07;7.00;99.90
2465;DHT22;1244;54.326;10.074;2023-11-21T01:00:33;7.00;99.90
2465;DHT22;1244;54.326;10.074;2023-11-21T01:02:59;7.00;99.90
2465;DHT22;1244;54.326;10.074;2023-11-21T01:05:25;7.00;99.90
2465;DHT22;1244;54.326;10.074;2023-11-21T01:07:50;7.00;99.90
2465;DHT22;1244;54.326;10.074;2023-11-21T01:10:16;7.00;99.90
2465;DHT22;1244;54.326;10.074;2023-11-21T01:12:42;7.00;99.90
2465;DHT22;1244;54.326;10.074;2023-11-21T01:15:08;6.90;99.90
2465;DHT22;1244;54.326;10.074;2023-11-21T01:17:34;6.90;99.90
2465;DHT22;1244;54.326;10.074;2023-11-21T01:20:01;6.90;99.90
2465;DHT22;1244;54.326;10.074;2023-11-21T01:22:26;6.90;99.90
2465;DHT22;1244;54.326;10.074;2023-11-21T01:24:53;6.90;99.90
2465;DHT22;1244;54.326;10.074;2023-11-21T01:27:18;7.00;99.90
2465;DHT22;1244;54.326;10.074;2023-11-21T01:29:44;6.90;99.90
2465;DHT22;1244;54.326;10.074;2023-11-21T01:32:10;6.90;99.90
2465;DHT22;1244;54.326;10.074;2023-11-21T01:34:36;6.80;99.90
2465;DHT22;1244;54.326;10.074;2023-11-21T01:37:02;6.80;99.90
2465;DHT22;1244;54.326;10.074;2023-11-21T01:39:30;6.80;99.90
2465;DHT22;1244;54.326;10.074;2023-11-21T01:41:55;6.80;99.90
2465;DHT22;1244;54.326;10.074;2023-11-21T01:44:22;6.70;99.90
2465;DHT22;1244;54.326;10.074;2023-11-21T01:46:49;6.70;99.90
2465;DHT22;1244;54.326;10.074;2023-11-21T01:49:16;6.70;99.90
2465;DHT22;1244;54.326;10.074;2023-11-21T01:51:43;6.70;99.90
2465;DHT22;1244;54.326;10.074;2023-11-21T01:54:11;6.70;99.90
2465;DHT22;1244;54.326;10.074;2023-11-21T01:56:37;6.70;99.90
2465;DHT22;1244;54.326;10.074;2023-11-21T01:59:02;6.60;99.90
2465;DHT22;1244;54.326;10.074;2023-11-21T02:01:28;6.70;99.90
2465;DHT22;1244;54.326;10.074;2023-11-21T02:03:53;6.70;99.90
2465;DHT22;1244;54.326;10.074;2023-11-21T02:06:19;6.70;99.90
2465;DHT22;1244;54.326;10.074;2023-11-21T02:08:44;6.70;99.90
2465;DHT22;1244;54.326;10.074;2023-11-21T02:11:10;6.70;99.90
2465;DHT22;1244;54.326;10.074;2023-11-21T02:13:38;6.70;99.90
2465;DHT22;1244;54.326;10.074;2023-11-21T02:16:04;6.60;99.90
2465;DHT22;1244;54.326;10.074;2023-11-21T02:18:30;6.60;99.90
2465;DHT22;1244;54.326;10.074;2023-11-21T02:20:56;6.60;99.90
2465;DHT22;1244;54.326;10.074;2023-11-21T02:23:21;6.70;99.90
2465;DHT22;1244;54.326;10.074;2023-11-21T02:25:48;6.70;99.90
2465;DHT22;1244;54.326;10.074;2023-11-21T02:28:14;6.70;99.90
2465;DHT22;1244;54.326;10.074;2023-11-21T02:30:41;6.70;99.90
2465;DHT22;1244;54.326;10.074;2023-11-21T02:33:07;6.60;99.90
2465;DHT22;1244;54.326;10.074;2023-11-21T02:35:33;6.70;99.90
2465;DHT22;1244;54.326;10.074;2023-11-21T02:37:58;6.60;99.90
2465;DHT22;1244;54.326;10.074;2023-11-21T02:40:24;6.60;99.90
2465;DHT22;1244;54.326;10.074;2023-11-21T02:42:52;6.60;99.90
2465;DHT22;1244;54.326;10.074;2023-11-21T02:45:19;6.60;99.90
2465;DHT22;1244;54.326;10.074;2023-11-21T02:47:46;6.60;99.90
2465;DHT22;1244;54.326;10.074;2023-11-21T02:50:12;6.60;99.90
2465;DHT22;1244;54.326;10.074;2023-11-21T02:52:38;6.60;99.90
2465;DHT22;1244;54.326;10.074;2023-11-21T02:55:05;6.60;99.90
2465;DHT22;1244;54.326;10.074;2023-11-21T02:57:32;6.60;99.90
2465;DHT22;1244;54.326;10.074;2023-11-21T02:59:58;6.60;99.90
2465;DHT22;1244;54.326;10.074;2023-11-21T03:02:25;6.60;99.90
2465;DHT22;1244;54.326;10.074;2023-11-21T03:04:51;6.60;99.90
2465;DHT22;1244;54.326;10.074;2023-11-21T03:07:17;6.60;99.90
2465;DHT22;1244;54.326;10.074;2023-11-21T03:09:45;6.50;99.90
2465;DHT22;1244;54.326;10.074;2023-11-21T03:12:11;6.50;99.90
2465;DHT22;1244;54.326;10.074;2023-11-21T03:14:38;6.50;99.90
2465;DHT22;1244;54.326;10.074;2023-11-21T03:17:03;6.50;99.90
2465;DHT22;1244;54.326;10.074;2023-11-21T03:19:30;6.50;99.90
2465;DHT22;1244;54.326;10.074;2023-11-21T03:21:56;6.50;99.90
2465;DHT22;1244;54.326;10.074;2023-11-21T03:24:21;6.50;99.90
2465;DHT22;1244;54.326;10.074;2023-11-21T03:26:48;6.50;99.90
2465;DHT22;1244;54.326;10.074;2023-11-21T03:29:14;6.50;99.90
2465;DHT22;1244;54.326;10.074;2023-11-21T03:31:40;6.50;99.90
2465;DHT22;1244;54.326;10.074;2023-11-21T03:34:06;6.50;99.90
2465;DHT22;1244;54.326;10.074;2023-11-21T03:36:32;6.60;99.90
2465;DHT22;1244;54.326;10.074;2023-11-21T03:38:57;6.50;99.90
2465;DHT22;1244;54.326;10.074;2023-11-21T03:41:23;6.50;99.90
2465;DHT22;1244;54.326;10.074;2023-11-21T03:43:48;6.50;99.90
2465;DHT22;1244;54.326;10.074;2023-11-21T03:46:14;6.60;99.90
2465;DHT22;1244;54.326;10.074;2023-11-21T03:48:40;6.50;99.90
2465;DHT22;1244;54.326;10.074;2023-11-21T03:51:05;6.60;99.90
2465;DHT22;1244;54.326;10.074;2023-11-21T03:53:31;6.50;99.90
2465;DHT22;1244;54.326;10.074;2023-11-21T03:55:57;6.50;99.90
2465;DHT22;1244;54.326;10.074;2023-11-21T03:58:23;6.50;99.90
2465;DHT22;1244;54.326;10.074;2023-11-21T04:00:48;6.50;99.90
2465;DHT22;1244;54.326;10.074;2023-11-21T04:03:16;6.50;99.90
2465;DHT22;1244;54.326;10.074;2023-11-21T04:05:42;6.50;99.90
2465;DHT22;1244;54.326;10.074;2023-11-21T04:08:07;6.50;99.90
2465;DHT22;1244;54.326;10.074;2023-11-21T04:10:33;6.50;99.90
2465;DHT22;1244;54.326;10.074;2023-11-21T04:12:59;6.50;99.90
2465;DHT22;1244;54.326;10.074;2023-11-21T04:15:25;6.50;99.90
2465;DHT22;1244;54.326;10.074;2023-11-21T04:17:51;6.60;99.90
2465;DHT22;1244;54.326;10.074;2023-11-21T04:20:17;6.60;99.90
2465;DHT22;1244;54.326;10.074;2023-11-21T04:22:44;6.60;99.90
2465;DHT22;1244;54.326;10.074;2023-11-21T04:25:10;6.60;99.90
2465;DHT22;1244;54.326;10.074;2023-11-21T04:27:38;6.50;99.90
2465;DHT22;1244;54.326;10.074;2023-11-21T04:30:05;6.60;99.90
2465;DHT22;1244;54.326;10.074;2023-11-21T04:32:30;6.60;99.90
2465;DHT22;1244;54.326;10.074;2023-11-21T04:34:56;6.50;99.90
2465;DHT22;1244;54.326;10.074;2023-11-21T04:37:21;6.60;99.90
2465;DHT22;1244;54.326;10.074;2023-11-21T04:39:48;6.60;99.90
2465;DHT22;1244;54.326;10.074;2023-11-21T04:42:13;6.60;99.90
2465;DHT22;1244;54.326;10.074;2023-11-21T04:44:38;6.60;99.90
2465;DHT22;1244;54.326;10.074;2023-11-21T04:47:06;6.60;99.90
2465;DHT22;1244;54.326;10.074;2023-11-21T04:49:31;6.50;99.90
2465;DHT22;1244;54.326;10.074;2023-11-21T04:51:57;6.60;99.90
2465;DHT22;1244;54.326;10.074;2023-11-21T04:54:22;6.60;99.90
2465;DHT22;1244;54.326;10.074;2023-11-21T04:56:48;6.50;99.90
2465;DHT22;1244;54.326;10.074;2023-11-21T04:59:13;6.50;99.90
2465;DHT22;1244;54.326;10.074;2023-11-21T05:01:39;6.50;99.90
2465;DHT22;1244;54.326;10.074;2023-11-21T05:04:04;6.50;99.90
2465;DHT22;1244;54.326;10.074;2023-11-21T05:06:31;6.50;99.90
2465;DHT22;1244;54.326;10.074;2023-11-21T05:08:56;6.40;99.90
2465;DHT22;1244;54.326;10.074;2023-11-21T05:11:28;6.40;99.90
2465;DHT22;1244;54.326;10.074;2023-11-21T05:13:54;6.50;99.90
2465;DHT22;1244;54.326;10.074;2023-11-21T05:16:21;6.50;99.90
2465;DHT22;1244;54.326;10.074;2023-11-21T05:18:47;6.50;99.90
2465;DHT22;1244;54.326;10.074;2023-11-21T05:21:12;6.40;99.90
2465;DHT22;1244;54.326;10.074;2023-11-21T05:23:38;6.40;99.90
2465;DHT22;1244;54.326;10.074;2023-11-21T05:26:03;6.50;99.90
2465;DHT22;1244;54.326;10.074;2023-11-21T05:28:29;6.40;99.90
2465;DHT22;1244;54.326;10.074;2023-11-21T05:30:54;6.40;99.90
2465;DHT22;1244;54.326;10.074;2023-11-21T05:33:20;6.50;99.90
2465;DHT22;1244;54.326;10.074;2023-11-21T05:35:45;6.50;99.90
2465;DHT22;1244;54.326;10.074;2023-11-21T05:38:11;6.40;99.90
2465;DHT22;1244;54.326;10.074;2023-11-21T05:40:37;6.40;99.90
2465;DHT22;1244;54.326;10.074;2023-11-21T05:43:02;6.40;99.90
2465;DHT22;1244;54.326;10.074;2023-11-21T05:45:27;6.40;99.90
2465;DHT22;1244;54.326;10.074;2023-11-21T05:47:55;6.40;99.90
2465;DHT22;1244;54.326;10.074;2023-11-21T05:50:20;6.40;99.90
2465;DHT22;1244;54.326;10.074;2023-11-21T05:52:46;6.40;99.90
2465;DHT22;1244;54.326;10.074;2023-11-21T05:55:12;6.40;99.90
2465;DHT22;1244;54.326;10.074;2023-11-21T05:57:38;6.40;99.90
2465;DHT22;1244;54.326;10.074;2023-11-21T06:00:04;6.40;99.90
2465;DHT22;1244;54.326;10.074;2023-11-21T06:02:36;6.40;99.90
2465;DHT22;1244;54.326;10.074;2023-11-21T06:05:02;6.40;99.90
2465;DHT22;1244;54.326;10.074;2023-11-21T06:07:29;6.30;99.90
2465;DHT22;1244;54.326;10.074;2023-11-21T06:09:55;6.30;99.90
2465;DHT22;1244;54.326;10.074;2023-11-21T06:12:20;6.30;99.90
2465;DHT22;1244;54.326;10.074;2023-11-21T06:14:45;6.40;99.90
2465;DHT22;1244;54.326;10.074;2023-11-21T06:17:11;6.30;99.90
2465;DHT22;1244;54.326;10.074;2023-11-21T06:19:36;6.30;99.90
2465;DHT22;1244;54.326;10.074;2023-11-21T06:22:02;6.30;99.90
2465;DHT22;1244;54.326;10.074;2023-11-21T06:24:28;6.30;99.90
2465;DHT22;1244;54.326;10.074;2023-11-21T06:26:53;6.30;99.90
2465;DHT22;1244;54.326;10.074;2023-11-21T06:29:18;6.30;99.90
2465;DHT22;1244;54.326;10.074;2023-11-21T06:31:44;6.30;99.90
2465;DHT22;1244;54.326;10.074;2023-11-21T06:34:11;6.30;99.90
2465;DHT22;1244;54.326;10.074;2023-11-21T06:36:37;6.20;99.90
2465;DHT22;1244;54.326;10.074;2023-11-21T06:39:03;6.20;99.90
2465;DHT22;1244;54.326;10.074;2023-11-21T06:41:33;6.20;99.90
2465;DHT22;1244;54.326;10.074;2023-11-21T06:43:59;6.20;99.90
2465;DHT22;1244;54.326;10.074;2023-11-21T06:46:24;6.20;99.90
2465;DHT22;1244;54.326;10.074;2023-11-21T06:48:49;6.20;99.90
2465;DHT22;1244;54.326;10.074;2023-11-21T06:51:15;6.30;99.90
2465;DHT22;1244;54.326;10.074;2023-11-21T06:53:41;6.20;99.90
2465;DHT22;1244;54.326;10.074;2023-11-21T06:56:16;6.30;99.90
2465;DHT22;1244;54.326;10.074;2023-11-21T06:58:41;6.30;99.90
2465;DHT22;1244;54.326;10.074;2023-11-21T07:01:07;6.30;99.90
2465;DHT22;1244;54.326;10.074;2023-11-21T07:03:32;6.30;99.90
2465;DHT22;1244;54.326;10.074;2023-11-21T07:05:58;6.30;99.90
2465;DHT22;1244;54.326;10.074;2023-11-21T07:08:23;6.20;99.90
2465;DHT22;1244;54.326;10.074;2023-11-21T07:10:48;6.30;99.90
2465;DHT22;1244;54.326;10.074;2023-11-21T07:13:14;6.20;99.90
2465;DHT22;1244;54.326;10.074;2023-11-21T07:15:40;6.30;99.90
2465;DHT22;1244;54.326;10.074;2023-11-21T07:18:06;6.30;99.90
2465;DHT22;1244;54.326;10.074;2023-11-21T07:20:33;6.30;99.90
2465;DHT22;1244;54.326;10.074;2023-11-21T07:22:58;6.30;99.90
2465;DHT22;1244;54.326;10.074;2023-11-21T07:25:25;6.30;99.90
2465;DHT22;1244;54.326;10.074;2023-11-21T07:27:51;6.30;99.90
2465;DHT22;1244;54.326;10.074;2023-11-21T07:30:17;6.30;99.90
2465;DHT22;1244;54.326;10.074;2023-11-21T07:32:42;6.30;99.90
2465;DHT22;1244;54.326;10.074;2023-11-21T07:35:11;6.30;99.90
2465;DHT22;1244;54.326;10.074;2023-11-21T07:37:37;6.40;99.90
2465;DHT22;1244;54.326;10.074;2023-11-21T07:40:04;6.30;99.90
2465;DHT22;1244;54.326;10.074;2023-11-21T07:42:30;6.30;99.90
2465;DHT22;1244;54.326;10.074;2023-11-21T07:44:56;6.30;99.90
2465;DHT22;1244;54.326;10.074;2023-11-21T07:47:22;6.30;99.90
2465;DHT22;1244;54.326;10.074;2023-11-21T07:49:47;6.30;99.90
2465;DHT22;1244;54.326;10.074;2023-11-21T07:52:13;6.30;99.90
2465;DHT22;1244;54.326;10.074;2023-11-21T07:54:41;6.30;99.90
2465;DHT22;1244;54.326;10.074;2023-11-21T07:57:07;6.30;99.90
2465;DHT22;1244;54.326;10.074;2023-11-21T07:59:33;6.40;99.90
2465;DHT22;1244;54.326;10.074;2023-11-21T08:01:58;6.40;99.90
2465;DHT22;1244;54.326;10.074;2023-11-21T08:04:24;6.40;99.90
2465;DHT22;1244;54.326;10.074;2023-11-21T08:06:49;6.50;99.90
2465;DHT22;1244;54.326;10.074;2023-11-21T08:09:16;6.50;99.90
2465;DHT22;1244;54.326;10.074;2023-11-21T08:11:43;6.50;99.90
2465;DHT22;1244;54.326;10.074;2023-11-21T08:14:08;6.50;99.90
2465;DHT22;1244;54.326;10.074;2023-11-21T08:16:34;6.60;99.90
2465;DHT22;1244;54.326;10.074;2023-11-21T08:18:59;6.60;99.90
2465;DHT22;1244;54.326;10.074;2023-11-21T08:21:25;6.70;99.90
2465;DHT22;1244;54.326;10.074;2023-11-21T08:23:50;6.60;99.90
2465;DHT22;1244;54.326;10.074;2023-11-21T08:26:20;6.60;99.90
2465;DHT22;1244;54.326;10.074;2023-11-21T08:28:45;6.60;99.90
2465;DHT22;1244;54.326;10.074;2023-11-21T08:31:12;6.60;99.90
2465;DHT22;1244;54.326;10.074;2023-11-21T08:33:38;6.60;99.90
2465;DHT22;1244;54.326;10.074;2023-11-21T08:36:09;6.60;99.90
2465;DHT22;1244;54.326;10.074;2023-11-21T08:38:36;6.60;99.90
2465;DHT22;1244;54.326;10.074;2023-11-21T08:41:07;6.60;99.90
2465;DHT22;1244;54.326;10.074;2023-11-21T08:43:34;6.60;99.90
2465;DHT22;1244;54.326;10.074;2023-11-21T08:46:00;6.60;99.90
2465;DHT22;1244;54.326;10.074;2023-11-21T08:48:25;6.60;99.90
2465;DHT22;1244;54.326;10.074;2023-11-21T08:50:53;6.70;99.90
2465;DHT22;1244;54.326;10.074;2023-11-21T08:53:19;6.60;99.90
2465;DHT22;1244;54.326;10.074;2023-11-21T08:55:45;6.70;99.90
2465;DHT22;1244;54.326;10.074;2023-11-21T08:58:10;6.70;99.90
2465;DHT22;1244;54.326;10.074;2023-11-21T09:00:38;6.80;99.90
2465;DHT22;1244;54.326;10.074;2023-11-21T09:03:04;6.70;99.90
2465;DHT22;1244;54.326;10.074;2023-11-21T09:05:34;6.80;99.90
2465;DHT22;1244;54.326;10.074;2023-11-21T09:08:02;6.80;99.90
2465;DHT22;1244;54.326;10.074;2023-11-21T09:10:28;6.80;99.90
2465;DHT22;1244;54.326;10.074;2023-11-21T09:12:53;6.90;99.90
2465;DHT22;1244;54.326;10.074;2023-11-21T09:15:19;6.90;99.90
2465;DHT22;1244;54.326;10.074;2023-11-21T09:17:45;6.90;99.90
2465;DHT22;1244;54.326;10.074;2023-11-21T09:20:11;6.90;99.90
2465;DHT22;1244;54.326;10.074;2023-11-21T09:22:37;6.90;99.90
2465;DHT22;1244;54.326;10.074;2023-11-21T09:25:02;6.90;99.90
2465;DHT22;1244;54.326;10.074;2023-11-21T09:27:31;6.90;99.90
2465;DHT22;1244;54.326;10.074;2023-11-21T09:29:57;6.90;99.90
2465;DHT22;1244;54.326;10.074;2023-11-21T09:32:23;7.00;99.90
2465;DHT22;1244;54.326;10.074;2023-11-21T09:34:50;6.90;99.90
2465;DHT22;1244;54.326;10.074;2023-11-21T09:37:16;6.80;99.90
2465;DHT22;1244;54.326;10.074;2023-11-21T09:39:41;6.80;99.90
2465;DHT22;1244;54.326;10.074;2023-11-21T09:42:09;6.80;99.90
2465;DHT22;1244;54.326;10.074;2023-11-21T09:44:45;6.90;99.90
2465;DHT22;1244;54.326;10.074;2023-11-21T09:47:14;6.90;99.90
2465;DHT22;1244;54.326;10.074;2023-11-21T09:49:42;6.90;99.90
2465;DHT22;1244;54.326;10.074;2023-11-21T09:52:16;6.90;99.90
2465;DHT22;1244;54.326;10.074;2023-11-21T09:54:44;6.90;99.90
2465;DHT22;1244;54.326;10.074;2023-11-21T09:57:10;7.10;99.90
2465;DHT22;1244;54.326;10.074;2023-11-21T09:59:36;7.20;99.90
2465;DHT22;1244;54.326;10.074;2023-11-21T10:02:02;7.20;99.90
2465;DHT22;1244;54.326;10.074;2023-11-21T10:04:28;7.20;99.90
2465;DHT22;1244;54.326;10.074;2023-11-21T10:06:54;7.20;99.90
2465;DHT22;1244;54.326;10.074;2023-11-21T10:09:21;7.10;99.90
2465;DHT22;1244;54.326;10.074;2023-11-21T10:11:49;7.00;99.90
2465;DHT22;1244;54.326;10.074;2023-11-21T10:14:18;7.00;99.90
2465;DHT22;1244;54.326;10.074;2023-11-21T10:16:44;7.00;99.90
2465;DHT22;1244;54.326;10.074;2023-11-21T10:19:12;6.90;99.90
2465;DHT22;1244;54.326;10.074;2023-11-21T10:21:40;6.80;99.90
2465;DHT22;1244;54.326;10.074;2023-11-21T10:24:05;6.80;99.90
2465;DHT22;1244;54.326;10.074;2023-11-21T10:26:32;6.80;99.90
2465;DHT22;1244;54.326;10.074;2023-11-21T10:29:00;6.80;99.90
2465;DHT22;1244;54.326;10.074;2023-11-21T10:31:30;6.80;99.90
2465;DHT22;1244;54.326;10.074;2023-11-21T10:34:18;6.70;99.90
2465;DHT22;1244;54.326;10.074;2023-11-21T10:36:44;6.60;99.90
2465;DHT22;1244;54.326;10.074;2023-11-21T10:39:14;6.60;99.90
2465;DHT22;1244;54.326;10.074;2023-11-21T10:41:46;6.60;99.90
2465;DHT22;1244;54.326;10.074;2023-11-21T10:44:16;6.60;99.90
2465;DHT22;1244;54.326;10.074;2023-11-21T10:46:53;6.70;99.90
2465;DHT22;1244;54.326;10.074;2023-11-21T10:49:22;6.60;99.90
2465;DHT22;1244;54.326;10.074;2023-11-21T10:51:50;6.70;99.90
2465;DHT22;1244;54.326;10.074;2023-11-21T10:54:21;6.70;99.90
2465;DHT22;1244;54.326;10.074;2023-11-21T10:56:49;6.70;99.90
2465;DHT22;1244;54.326;10.074;2023-11-21T10:59:17;6.60;99.90
2465;DHT22;1244;54.326;10.074;2023-11-21T11:01:45;6.60;99.90
2465;DHT22;1244;54.326;10.074;2023-11-21T11:04:12;6.70;99.90
2465;DHT22;1244;54.326;10.074;2023-11-21T11:06:50;6.70;99.90
2465;DHT22;1244;54.326;10.074;2023-11-21T11:09:17;6.70;99.90
2465;DHT22;1244;54.326;10.074;2023-11-21T11:11:43;6.70;99.90
2465;DHT22;1244;54.326;10.074;2023-11-21T11:14:13;6.70;99.90
2465;DHT22;1244;54.326;10.074;2023-11-21T11:16:40;6.70;99.90
2465;DHT22;1244;54.326;10.074;2023-11-21T11:19:09;6.70;99.90
2465;DHT22;1244;54.326;10.074;2023-11-21T11:28:17;6.60;99.90
2465;DHT22;1244;54.326;10.074;2023-11-21T11:31:02;6.60;99.90
2465;DHT22;1244;54.326;10.074;2023-11-21T11:33:53;6.60;99.90
2465;DHT22;1244;54.326;10.074;2023-11-21T11:36:37;6.60;99.90
2465;DHT22;1244;54.326;10.074;2023-11-21T11:39:29;6.70;99.90
2465;DHT22;1244;54.326;10.074;2023-11-21T11:42:01;6.70;99.90
2465;DHT22;1244;54.326;10.074;2023-11-21T11:47:31;6.70;99.90
2465;DHT22;1244;54.326;10.074;2023-11-21T11:50:10;6.60;99.90
2465;DHT22;1244;54.326;10.074;2023-11-21T11:52:40;6.50;99.90
2465;DHT22;1244;54.326;10.074;2023-11-21T11:55:11;6.50;99.90
2465;DHT22;1244;54.326;10.074;2023-11-21T11:57:38;6.50;99.90
2465;DHT22;1244;54.326;10.074;2023-11-21T12:00:13;6.40;99.90
2465;DHT22;1244;54.326;10.074;2023-11-21T12:02:46;6.40;99.90
2465;DHT22;1244;54.326;10.074;2023-11-21T12:05:16;6.40;99.90
2465;DHT22;1244;54.326;10.074;2023-11-21T12:07:50;6.50;99.90
2465;DHT22;1244;54.326;10.074;2023-11-21T12:10:20;6.40;99.90
2465;DHT22;1244;54.326;10.074;2023-11-21T12:12:48;6.50;99.90
2465;DHT22;1244;54.326;10.074;2023-11-21T12:15:14;6.60;99.90
2465;DHT22;1244;54.326;10.074;2023-11-21T12:17:41;6.60;99.90
2465;DHT22;1244;54.326;10.074;2023-11-21T12:20:07;6.60;99.90
2465;DHT22;1244;54.326;10.074;2023-11-21T12:25:19;6.60;99.90
2465;DHT22;1244;54.326;10.074;2023-11-21T12:27:46;6.50;99.90
2465;DHT22;1244;54.326;10.074;2023-11-21T12:30:13;6.50;99.90
2465;DHT22;1244;54.326;10.074;2023-11-21T12:32:43;6.50;99.90
2465;DHT22;1244;54.326;10.074;2023-11-21T12:35:12;6.50;99.90
2465;DHT22;1244;54.326;10.074;2023-11-21T12:37:38;6.50;99.90
2465;DHT22;1244;54.326;10.074;2023-11-21T12:40:05;6.50;99.90
2465;DHT22;1244;54.326;10.074;2023-11-21T12:42:31;6.50;99.90
2465;DHT22;1244;54.326;10.074;2023-11-21T12:47:43;6.50;99.90
2465;DHT22;1244;54.326;10.074;2023-11-21T12:50:09;6.50;99.90
2465;DHT22;1244;54.326;10.074;2023-11-21T12:52:44;6.50;99.90
2465;DHT22;1244;54.326;10.074;2023-11-21T12:55:22;6.50;99.90
2465;DHT22;1244;54.326;10.074;2023-11-21T12:57:55;6.50;99.90
2465;DHT22;1244;54.326;10.074;2023-11-21T13:00:28;6.50;99.90
2465;DHT22;1244;54.326;10.074;2023-11-21T13:02:57;6.50;99.90
2465;DHT22;1244;54.326;10.074;2023-11-21T13:05:32;6.60;99.90
2465;DHT22;1244;54.326;10.074;2023-11-21T13:08:03;6.60;99.90
2465;DHT22;1244;54.326;10.074;2023-11-21T13:10:31;6.50;99.90
2465;DHT22;1244;54.326;10.074;2023-11-21T13:13:01;6.50;99.90
2465;DHT22;1244;54.326;10.074;2023-11-21T13:15:29;6.50;99.90
2465;DHT22;1244;54.326;10.074;2023-11-21T13:17:57;6.40;99.90
2465;DHT22;1244;54.326;10.074;2023-11-21T13:20:24;6.50;99.90
2465;DHT22;1244;54.326;10.074;2023-11-21T13:22:51;6.50;99.90
2465;DHT22;1244;54.326;10.074;2023-11-21T13:25:24;6.50;99.90
2465;DHT22;1244;54.326;10.074;2023-11-21T13:27:53;6.40;99.90
2465;DHT22;1244;54.326;10.074;2023-11-21T13:30:18;6.30;99.90
2465;DHT22;1244;54.326;10.074;2023-11-21T13:32:48;6.40;99.90
2465;DHT22;1244;54.326;10.074;2023-11-21T13:35:18;6.40;99.90
2465;DHT22;1244;54.326;10.074;2023-11-21T13:37:50;6.50;99.90
2465;DHT22;1244;54.326;10.074;2023-11-21T13:40:21;6.50;99.90
2465;DHT22;1244;54.326;10.074;2023-11-21T13:42:55;6.50;99.90
2465;DHT22;1244;54.326;10.074;2023-11-21T13:45:25;6.50;99.90
2465;DHT22;1244;54.326;10.074;2023-11-21T13:47:53;6.50;99.90
2465;DHT22;1244;54.326;10.074;2023-11-21T13:50:28;6.50;99.90
2465;DHT22;1244;54.326;10.074;2023-11-21T13:53:01;6.50;99.90
2465;DHT22;1244;54.326;10.074;2023-11-21T13:55:29;6.50;99.90
2465;DHT22;1244;54.326;10.074;2023-11-21T13:57:54;6.40;99.90
2465;DHT22;1244;54.326;10.074;2023-11-21T14:00:20;6.40;99.90
2465;DHT22;1244;54.326;10.074;2023-11-21T14:03:04;6.40;99.90
2465;DHT22;1244;54.326;10.074;2023-11-21T14:05:34;6.20;99.90
2465;DHT22;1244;54.326;10.074;2023-11-21T14:08:00;6.20;99.90
2465;DHT22;1244;54.326;10.074;2023-11-21T14:10:31;6.10;99.90
2465;DHT22;1244;54.326;10.074;2023-11-21T14:13:11;6.10;99.90
2465;DHT22;1244;54.326;10.074;2023-11-21T14:15:39;6.00;99.90
2465;DHT22;1244;54.326;10.074;2023-11-21T14:18:07;6.00;99.90
2465;DHT22;1244;54.326;10.074;2023-11-21T14:20:38;6.00;99.90
2465;DHT22;1244;54.326;10.074;2023-11-21T14:23:05;6.00;99.90
2465;DHT22;1244;54.326;10.074;2023-11-21T14:25:33;6.00;99.90
2465;DHT22;1244;54.326;10.074;2023-11-21T14:27:59;5.90;99.90
2465;DHT22;1244;54.326;10.074;2023-11-21T14:30:25;5.90;99.90
2465;DHT22;1244;54.326;10.074;2023-11-21T14:32:51;5.90;99.90
2465;DHT22;1244;54.326;10.074;2023-11-21T14:35:16;5.90;99.90
2465;DHT22;1244;54.326;10.074;2023-11-21T14:37:43;5.80;99.90
2465;DHT22;1244;54.326;10.074;2023-11-21T14:40:09;5.90;99.90
2465;DHT22;1244;54.326;10.074;2023-11-21T14:42:35;6.00;99.90
2465;DHT22;1244;54.326;10.074;2023-11-21T14:45:04;6.00;99.90
2465;DHT22;1244;54.326;10.074;2023-11-21T14:47:33;5.90;99.90
2465;DHT22;1244;54.326;10.074;2023-11-21T14:50:03;5.90;99.90
2465;DHT22;1244;54.326;10.074;2023-11-21T14:52:48;5.80;99.90
2465;DHT22;1244;54.326;10.074;2023-11-21T14:55:24;5.60;99.90
2465;DHT22;1244;54.326;10.074;2023-11-21T14:57:57;5.60;99.90
2465;DHT22;1244;54.326;10.074;2023-11-21T15:00:27;5.50;99.90
2465;DHT22;1244;54.326;10.074;2023-11-21T15:02:59;5.50;99.90
2465;DHT22;1244;54.326;10.074;2023-11-21T15:05:26;5.50;99.90
2465;DHT22;1244;54.326;10.074;2023-11-21T15:07:53;5.40;99.90
2465;DHT22;1244;54.326;10.074;2023-11-21T15:10:22;5.40;99.90
2465;DHT22;1244;54.326;10.074;2023-11-21T15:12:54;5.30;99.90
2465;DHT22;1244;54.326;10.074;2023-11-21T15:15:20;5.40;99.90
2465;DHT22;1244;54.326;10.074;2023-11-21T15:17:47;5.30;99.90
2465;DHT22;1244;54.326;10.074;2023-11-21T15:20:13;5.20;99.90
2465;DHT22;1244;54.326;10.074;2023-11-21T15:22:47;5.20;99.90
2465;DHT22;1244;54.326;10.074;2023-11-21T15:25:12;5.20;99.90
2465;DHT22;1244;54.326;10.074;2023-11-21T15:27:38;5.10;99.90
2465;DHT22;1244;54.326;10.074;2023-11-21T15:30:05;5.10;99.90
2465;DHT22;1244;54.326;10.074;2023-11-21T15:32:30;5.10;99.90
2465;DHT22;1244;54.326;10.074;2023-11-21T15:34:56;5.10;99.90
2465;DHT22;1244;54.326;10.074;2023-11-21T15:37:22;5.10;99.90
2465;DHT22;1244;54.326;10.074;2023-11-21T15:39:47;5.00;99.90
2465;DHT22;1244;54.326;10.074;2023-11-21T15:42:13;5.00;99.90
2465;DHT22;1244;54.326;10.074;2023-11-21T15:44:38;5.00;99.90
2465;DHT22;1244;54.326;10.074;2023-11-21T15:47:04;5.00;99.90
2465;DHT22;1244;54.326;10.074;2023-11-21T15:49:31;4.90;99.90
2465;DHT22;1244;54.326;10.074;2023-11-21T15:51:59;4.90;99.90
2465;DHT22;1244;54.326;10.074;2023-11-21T15:54:25;4.90;99.90
2465;DHT22;1244;54.326;10.074;2023-11-21T15:56:52;4.90;99.90
2465;DHT22;1244;54.326;10.074;2023-11-21T15:59:17;4.90;99.90
2465;DHT22;1244;54.326;10.074;2023-11-21T16:01:43;4.90;99.90
2465;DHT22;1244;54.326;10.074;2023-11-21T16:04:13;4.80;99.90
2465;DHT22;1244;54.326;10.074;2023-11-21T16:06:45;4.80;99.90
2465;DHT22;1244;54.326;10.074;2023-11-21T16:09:12;4.70;99.90
2465;DHT22;1244;54.326;10.074;2023-11-21T16:11:48;4.70;99.90
2465;DHT22;1244;54.326;10.074;2023-11-21T16:14:14;4.70;99.90
2465;DHT22;1244;54.326;10.074;2023-11-21T16:16:42;4.70;99.90
2465;DHT22;1244;54.326;10.074;2023-11-21T16:19:07;4.80;99.90